sensor_id;sensor_type;location;lat;lon;timestamp;P1;durP1;ratioP1;P2;durP2;ratioP2
8044;SDS011;4065;48.754;9.982;2023-04-29T00:01:15;4.43;;;3.95;;
8044;SDS011;4065;48.754;9.982;2023-04-29T00:04:38;6.22;;;4.20;;
8044;SDS011;4065;48.754;9.982;2023-04-29T00:08:00;4.90;;;3.78;;
8044;SDS011;4065;48.754;9.982;2023-04-29T00:11:24;4.53;;;4.13;;
8044;SDS011;4065;48.754;9.982;2023-04-29T00:14:46;4.18;;;3.70;;
8044;SDS011;4065;48.754;9.982;2023-04-29T00:18:07;4.70;;;4.30;;
8044;SDS011;4065;48.754;9.982;2023-04-29T00:21:32;5.05;;;3.85;;
8044;SDS011;4065;48.754;9.982;2023-04-29T00:24:54;4.55;;;4.15;;
8044;SDS011;4065;48.754;9.982;2023-04-29T00:28:16;4.22;;;3.83;;
8044;SDS011;4065;48.754;9.982;2023-04-29T00:31:38;4.25;;;3.80;;
8044;SDS011;4065;48.754;9.982;2023-04-29T00:34:59;5.03;;;4.22;;
8044;SDS011;4065;48.754;9.982;2023-04-29T00:38:23;4.78;;;4.22;;
8044;SDS011;4065;48.754;9.982;2023-04-29T00:41:45;4.22;;;3.83;;
8044;SDS011;4065;48.754;9.982;2023-04-29T00:45:07;4.45;;;4.05;;
8044;SDS011;4065;48.754;9.982;2023-04-29T00:48:30;5.30;;;4.32;;
8044;SDS011;4065;48.754;9.982;2023-04-29T00:51:53;6.95;;;4.88;;
8044;SDS011;4065;48.754;9.982;2023-04-29T00:55:16;6.28;;;4.18;;
8044;SDS011;4065;48.754;9.982;2023-04-29T00:58:38;5.30;;;4.80;;
8044;SDS011;4065;48.754;9.982;2023-04-29T01:02:00;5.35;;;4.32;;
8044;SDS011;4065;48.754;9.982;2023-04-29T01:05:23;4.65;;;4.25;;
8044;SDS011;4065;48.754;9.982;2023-04-29T01:08:57;9.82;;;5.00;;
8044;SDS011;4065;48.754;9.982;2023-04-29T01:12:27;6.32;;;5.25;;
8044;SDS011;4065;48.754;9.982;2023-04-29T01:15:56;6.00;;;5.18;;
8044;SDS011;4065;48.754;9.982;2023-04-29T01:19:26;7.45;;;5.47;;
8044;SDS011;4065;48.754;9.982;2023-04-29T01:23:00;6.03;;;5.43;;
8044;SDS011;4065;48.754;9.982;2023-04-29T01:26:23;7.78;;;5.90;;
8044;SDS011;4065;48.754;9.982;2023-04-29T01:29:58;5.63;;;5.13;;
8044;SDS011;4065;48.754;9.982;2023-04-29T01:33:27;6.72;;;5.78;;
8044;SDS011;4065;48.754;9.982;2023-04-29T01:36:56;5.93;;;5.35;;
8044;SDS011;4065;48.754;9.982;2023-04-29T01:40:21;5.88;;;5.32;;
8044;SDS011;4065;48.754;9.982;2023-04-29T01:43:49;8.73;;;5.75;;
8044;SDS011;4065;48.754;9.982;2023-04-29T01:47:12;6.03;;;5.38;;
8044;SDS011;4065;48.754;9.982;2023-04-29T01:50:34;6.22;;;5.25;;
8044;SDS011;4065;48.754;9.982;2023-04-29T01:53:56;7.82;;;5.55;;
8044;SDS011;4065;48.754;9.982;2023-04-29T01:57:18;5.95;;;5.45;;
8044;SDS011;4065;48.754;9.982;2023-04-29T02:00:41;6.45;;;5.75;;
8044;SDS011;4065;48.754;9.982;2023-04-29T02:04:03;6.80;;;6.18;;
8044;SDS011;4065;48.754;9.982;2023-04-29T02:07:25;7.15;;;6.13;;
8044;SDS011;4065;48.754;9.982;2023-04-29T02:10:51;7.97;;;6.53;;
8044;SDS011;4065;48.754;9.982;2023-04-29T02:14:13;6.13;;;5.63;;
8044;SDS011;4065;48.754;9.982;2023-04-29T02:17:37;7.45;;;5.93;;
8044;SDS011;4065;48.754;9.982;2023-04-29T02:20:59;7.40;;;6.20;;
8044;SDS011;4065;48.754;9.982;2023-04-29T02:24:21;7.88;;;5.85;;
8044;SDS011;4065;48.754;9.982;2023-04-29T02:27:43;6.40;;;5.82;;
8044;SDS011;4065;48.754;9.982;2023-04-29T02:31:05;6.75;;;6.15;;
8044;SDS011;4065;48.754;9.982;2023-04-29T02:34:28;8.32;;;6.57;;
8044;SDS011;4065;48.754;9.982;2023-04-29T02:37:51;6.53;;;5.93;;
8044;SDS011;4065;48.754;9.982;2023-04-29T02:41:15;6.85;;;6.25;;
8044;SDS011;4065;48.754;9.982;2023-04-29T02:44:37;7.05;;;6.45;;
8044;SDS011;4065;48.754;9.982;2023-04-29T02:47:59;7.53;;;6.82;;
8044;SDS011;4065;48.754;9.982;2023-04-29T02:51:22;8.02;;;6.93;;
8044;SDS011;4065;48.754;9.982;2023-04-29T02:54:44;7.65;;;6.65;;
8044;SDS011;4065;48.754;9.982;2023-04-29T02:58:06;7.80;;;7.10;;
8044;SDS011;4065;48.754;9.982;2023-04-29T03:01:34;8.23;;;7.47;;
8044;SDS011;4065;48.754;9.982;2023-04-29T03:04:57;8.32;;;7.63;;
8044;SDS011;4065;48.754;9.982;2023-04-29T03:08:21;10.77;;;8.00;;
8044;SDS011;4065;48.754;9.982;2023-04-29T03:11:42;10.65;;;8.77;;
8044;SDS011;4065;48.754;9.982;2023-04-29T03:15:05;9.10;;;8.20;;
8044;SDS011;4065;48.754;9.982;2023-04-29T03:18:27;8.43;;;7.63;;
8044;SDS011;4065;48.754;9.982;2023-04-29T03:21:49;10.27;;;8.10;;
8044;SDS011;4065;48.754;9.982;2023-04-29T03:25:12;10.80;;;7.78;;
8044;SDS011;4065;48.754;9.982;2023-04-29T03:28:34;8.90;;;8.10;;
8044;SDS011;4065;48.754;9.982;2023-04-29T03:31:56;7.82;;;7.13;;
8044;SDS011;4065;48.754;9.982;2023-04-29T03:35:18;8.25;;;7.50;;
8044;SDS011;4065;48.754;9.982;2023-04-29T03:38:40;8.75;;;7.95;;
8044;SDS011;4065;48.754;9.982;2023-04-29T03:42:03;10.88;;;9.13;;
8044;SDS011;4065;48.754;9.982;2023-04-29T03:45:25;8.73;;;7.85;;
8044;SDS011;4065;48.754;9.982;2023-04-29T03:48:47;9.20;;;8.15;;
8044;SDS011;4065;48.754;9.982;2023-04-29T03:52:11;9.50;;;7.70;;
8044;SDS011;4065;48.754;9.982;2023-04-29T03:55:33;8.25;;;7.47;;
8044;SDS011;4065;48.754;9.982;2023-04-29T03:58:56;7.75;;;7.05;;
8044;SDS011;4065;48.754;9.982;2023-04-29T04:02:18;7.30;;;6.70;;
8044;SDS011;4065;48.754;9.982;2023-04-29T04:05:40;7.25;;;6.65;;
8044;SDS011;4065;48.754;9.982;2023-04-29T04:09:01;8.40;;;6.40;;
8044;SDS011;4065;48.754;9.982;2023-04-29T04:12:23;7.10;;;6.40;;
8044;SDS011;4065;48.754;9.982;2023-04-29T04:15:49;6.90;;;6.20;;
8044;SDS011;4065;48.754;9.982;2023-04-29T04:19:11;6.35;;;5.75;;
8044;SDS011;4065;48.754;9.982;2023-04-29T04:22:33;11.80;;;6.53;;
8044;SDS011;4065;48.754;9.982;2023-04-29T04:25:55;8.27;;;5.70;;
8044;SDS011;4065;48.754;9.982;2023-04-29T04:29:17;6.65;;;5.95;;
8044;SDS011;4065;48.754;9.982;2023-04-29T04:32:43;5.95;;;5.45;;
8044;SDS011;4065;48.754;9.982;2023-04-29T04:36:05;6.55;;;5.70;;
8044;SDS011;4065;48.754;9.982;2023-04-29T04:39:27;6.25;;;5.57;;
8044;SDS011;4065;48.754;9.982;2023-04-29T04:42:50;6.38;;;5.78;;
8044;SDS011;4065;48.754;9.982;2023-04-29T04:46:12;6.57;;;5.97;;
8044;SDS011;4065;48.754;9.982;2023-04-29T04:49:37;6.07;;;5.40;;
8044;SDS011;4065;48.754;9.982;2023-04-29T04:52:59;5.82;;;5.28;;
8044;SDS011;4065;48.754;9.982;2023-04-29T04:56:21;5.13;;;4.45;;
8044;SDS011;4065;48.754;9.982;2023-04-29T04:59:43;7.20;;;5.45;;
8044;SDS011;4065;48.754;9.982;2023-04-29T05:03:05;7.50;;;6.80;;
8044;SDS011;4065;48.754;9.982;2023-04-29T05:06:29;6.88;;;6.00;;
8044;SDS011;4065;48.754;9.982;2023-04-29T05:09:51;7.07;;;6.38;;
8044;SDS011;4065;48.754;9.982;2023-04-29T05:13:13;6.75;;;5.90;;
8044;SDS011;4065;48.754;9.982;2023-04-29T05:16:35;7.22;;;6.53;;
8044;SDS011;4065;48.754;9.982;2023-04-29T05:19:57;7.40;;;6.70;;
8044;SDS011;4065;48.754;9.982;2023-04-29T05:23:22;8.10;;;7.07;;
8044;SDS011;4065;48.754;9.982;2023-04-29T05:26:44;7.45;;;6.75;;
8044;SDS011;4065;48.754;9.982;2023-04-29T05:30:06;9.82;;;8.23;;
8044;SDS011;4065;48.754;9.982;2023-04-29T05:33:29;9.27;;;8.15;;
8044;SDS011;4065;48.754;9.982;2023-04-29T05:36:51;9.25;;;8.32;;
8044;SDS011;4065;48.754;9.982;2023-04-29T05:40:14;8.80;;;8.00;;
8044;SDS011;4065;48.754;9.982;2023-04-29T05:43:36;8.82;;;8.02;;
8044;SDS011;4065;48.754;9.982;2023-04-29T05:46:58;8.25;;;7.40;;
8044;SDS011;4065;48.754;9.982;2023-04-29T05:50:20;8.45;;;7.65;;
8044;SDS011;4065;48.754;9.982;2023-04-29T05:53:42;9.00;;;8.20;;
8044;SDS011;4065;48.754;9.982;2023-04-29T05:57:06;8.85;;;8.05;;
8044;SDS011;4065;48.754;9.982;2023-04-29T06:00:28;9.45;;;8.45;;
8044;SDS011;4065;48.754;9.982;2023-04-29T06:03:51;9.43;;;8.20;;
8044;SDS011;4065;48.754;9.982;2023-04-29T06:07:13;9.38;;;8.40;;
8044;SDS011;4065;48.754;9.982;2023-04-29T06:10:35;10.80;;;9.70;;
8044;SDS011;4065;48.754;9.982;2023-04-29T06:13:58;11.35;;;10.23;;
8044;SDS011;4065;48.754;9.982;2023-04-29T06:17:21;12.52;;;11.30;;
8044;SDS011;4065;48.754;9.982;2023-04-29T06:20:42;15.43;;;13.13;;
8044;SDS011;4065;48.754;9.982;2023-04-29T06:24:05;13.30;;;12.00;;
8044;SDS011;4065;48.754;9.982;2023-04-29T06:27:27;13.25;;;11.95;;
8044;SDS011;4065;48.754;9.982;2023-04-29T06:30:50;14.00;;;12.15;;
8044;SDS011;4065;48.754;9.982;2023-04-29T06:34:15;14.48;;;13.07;;
8044;SDS011;4065;48.754;9.982;2023-04-29T06:37:39;16.58;;;14.57;;
8044;SDS011;4065;48.754;9.982;2023-04-29T06:41:01;13.45;;;12.15;;
8044;SDS011;4065;48.754;9.982;2023-04-29T06:44:23;12.13;;;10.95;;
8044;SDS011;4065;48.754;9.982;2023-04-29T06:47:46;10.48;;;9.48;;
8044;SDS011;4065;48.754;9.982;2023-04-29T06:51:11;11.13;;;9.48;;
8044;SDS011;4065;48.754;9.982;2023-04-29T06:54:35;9.13;;;8.27;;
8044;SDS011;4065;48.754;9.982;2023-04-29T06:57:57;10.70;;;8.50;;
8044;SDS011;4065;48.754;9.982;2023-04-29T07:01:19;9.85;;;8.95;;
8044;SDS011;4065;48.754;9.982;2023-04-29T07:04:43;9.13;;;8.18;;
8044;SDS011;4065;48.754;9.982;2023-04-29T07:08:07;10.75;;;9.68;;
8044;SDS011;4065;48.754;9.982;2023-04-29T07:11:29;10.27;;;9.30;;
8044;SDS011;4065;48.754;9.982;2023-04-29T07:15:06;9.30;;;8.40;;
8044;SDS011;4065;48.754;9.982;2023-04-29T07:18:28;10.43;;;9.43;;
8044;SDS011;4065;48.754;9.982;2023-04-29T07:21:52;9.57;;;8.57;;
8044;SDS011;4065;48.754;9.982;2023-04-29T07:25:14;10.27;;;9.30;;
8044;SDS011;4065;48.754;9.982;2023-04-29T07:28:35;9.10;;;8.20;;
8044;SDS011;4065;48.754;9.982;2023-04-29T07:31:57;8.70;;;7.90;;
8044;SDS011;4065;48.754;9.982;2023-04-29T07:35:19;9.82;;;8.82;;
8044;SDS011;4065;48.754;9.982;2023-04-29T07:38:43;9.57;;;8.68;;
8044;SDS011;4065;48.754;9.982;2023-04-29T07:42:05;8.45;;;7.75;;
8044;SDS011;4065;48.754;9.982;2023-04-29T07:45:27;9.90;;;8.90;;
8044;SDS011;4065;48.754;9.982;2023-04-29T07:48:49;8.45;;;7.65;;
8044;SDS011;4065;48.754;9.982;2023-04-29T07:52:12;8.30;;;7.60;;
8044;SDS011;4065;48.754;9.982;2023-04-29T07:55:35;9.73;;;7.80;;
8044;SDS011;4065;48.754;9.982;2023-04-29T07:58:58;8.70;;;7.90;;
8044;SDS011;4065;48.754;9.982;2023-04-29T08:02:20;8.52;;;7.80;;
8044;SDS011;4065;48.754;9.982;2023-04-29T08:05:42;12.32;;;9.27;;
8044;SDS011;4065;48.754;9.982;2023-04-29T08:09:04;9.00;;;8.20;;
8044;SDS011;4065;48.754;9.982;2023-04-29T08:12:27;8.75;;;7.93;;
8044;SDS011;4065;48.754;9.982;2023-04-29T08:15:50;8.07;;;7.38;;
8044;SDS011;4065;48.754;9.982;2023-04-29T08:19:13;7.38;;;6.75;;
8044;SDS011;4065;48.754;9.982;2023-04-29T08:22:35;7.50;;;6.80;;
8044;SDS011;4065;48.754;9.982;2023-04-29T08:25:57;6.53;;;5.93;;
8044;SDS011;4065;48.754;9.982;2023-04-29T08:29:20;4.78;;;4.38;;
8044;SDS011;4065;48.754;9.982;2023-04-29T08:32:42;6.35;;;5.10;;
8044;SDS011;4065;48.754;9.982;2023-04-29T08:36:06;6.05;;;4.70;;
8044;SDS011;4065;48.754;9.982;2023-04-29T08:39:30;4.63;;;4.13;;
8044;SDS011;4065;48.754;9.982;2023-04-29T08:42:53;4.97;;;4.57;;
8044;SDS011;4065;48.754;9.982;2023-04-29T08:46:16;6.40;;;5.00;;
8044;SDS011;4065;48.754;9.982;2023-04-29T08:49:40;6.18;;;5.15;;
8044;SDS011;4065;48.754;9.982;2023-04-29T08:53:02;5.40;;;4.90;;
8044;SDS011;4065;48.754;9.982;2023-04-29T08:56:24;5.15;;;4.40;;
8044;SDS011;4065;48.754;9.982;2023-04-29T08:59:46;4.90;;;4.40;;
8044;SDS011;4065;48.754;9.982;2023-04-29T09:03:13;4.35;;;3.95;;
8044;SDS011;4065;48.754;9.982;2023-04-29T09:06:38;4.70;;;4.30;;
8044;SDS011;4065;48.754;9.982;2023-04-29T09:10:00;4.65;;;4.25;;
8044;SDS011;4065;48.754;9.982;2023-04-29T09:13:23;5.22;;;4.45;;
8044;SDS011;4065;48.754;9.982;2023-04-29T09:16:45;4.90;;;4.50;;
8044;SDS011;4065;48.754;9.982;2023-04-29T09:20:27;4.60;;;4.20;;
8044;SDS011;4065;48.754;9.982;2023-04-29T09:23:51;4.68;;;4.28;;
8044;SDS011;4065;48.754;9.982;2023-04-29T09:27:24;4.25;;;3.85;;
8044;SDS011;4065;48.754;9.982;2023-04-29T09:30:47;5.53;;;4.03;;
8044;SDS011;4065;48.754;9.982;2023-04-29T09:34:10;4.95;;;3.80;;
8044;SDS011;4065;48.754;9.982;2023-04-29T09:37:33;4.50;;;4.10;;
8044;SDS011;4065;48.754;9.982;2023-04-29T09:40:56;4.00;;;3.70;;
8044;SDS011;4065;48.754;9.982;2023-04-29T09:44:19;3.88;;;3.58;;
8044;SDS011;4065;48.754;9.982;2023-04-29T09:47:42;4.20;;;3.80;;
8044;SDS011;4065;48.754;9.982;2023-04-29T09:51:04;4.65;;;4.25;;
8044;SDS011;4065;48.754;9.982;2023-04-29T09:54:28;5.15;;;3.40;;
8044;SDS011;4065;48.754;9.982;2023-04-29T09:57:54;3.70;;;3.40;;
8044;SDS011;4065;48.754;9.982;2023-04-29T10:01:16;5.28;;;3.72;;
8044;SDS011;4065;48.754;9.982;2023-04-29T10:04:40;4.50;;;4.10;;
8044;SDS011;4065;48.754;9.982;2023-04-29T10:08:03;4.72;;;4.32;;
8044;SDS011;4065;48.754;9.982;2023-04-29T10:11:26;4.53;;;4.15;;
8044;SDS011;4065;48.754;9.982;2023-04-29T10:15:01;4.00;;;3.67;;
8044;SDS011;4065;48.754;9.982;2023-04-29T10:18:25;4.57;;;4.05;;
8044;SDS011;4065;48.754;9.982;2023-04-29T10:21:55;4.03;;;3.63;;
8044;SDS011;4065;48.754;9.982;2023-04-29T10:25:19;5.22;;;4.50;;
8044;SDS011;4065;48.754;9.982;2023-04-29T10:28:43;3.85;;;3.55;;
8044;SDS011;4065;48.754;9.982;2023-04-29T10:32:09;3.53;;;3.22;;
8044;SDS011;4065;48.754;9.982;2023-04-29T10:35:31;4.30;;;3.50;;
8044;SDS011;4065;48.754;9.982;2023-04-29T10:38:54;4.57;;;3.60;;
8044;SDS011;4065;48.754;9.982;2023-04-29T10:42:20;4.65;;;3.65;;
8044;SDS011;4065;48.754;9.982;2023-04-29T10:45:58;3.90;;;3.60;;
8044;SDS011;4065;48.754;9.982;2023-04-29T10:49:38;3.58;;;3.28;;
8044;SDS011;4065;48.754;9.982;2023-04-29T10:53:00;10.50;;;6.63;;
8044;SDS011;4065;48.754;9.982;2023-04-29T10:56:23;10.13;;;7.53;;
8044;SDS011;4065;48.754;9.982;2023-04-29T10:59:56;4.63;;;4.20;;
8044;SDS011;4065;48.754;9.982;2023-04-29T11:03:43;4.20;;;3.63;;
8044;SDS011;4065;48.754;9.982;2023-04-29T11:07:06;4.90;;;3.65;;
8044;SDS011;4065;48.754;9.982;2023-04-29T11:10:34;4.05;;;3.65;;
8044;SDS011;4065;48.754;9.982;2023-04-29T11:13:56;4.20;;;3.70;;
8044;SDS011;4065;48.754;9.982;2023-04-29T11:17:18;4.22;;;3.40;;
8044;SDS011;4065;48.754;9.982;2023-04-29T11:24:47;4.53;;;4.00;;
8044;SDS011;4065;48.754;9.982;2023-04-29T11:28:10;4.30;;;3.95;;
8044;SDS011;4065;48.754;9.982;2023-04-29T11:31:34;4.90;;;4.50;;
8044;SDS011;4065;48.754;9.982;2023-04-29T11:35:06;10.05;;;3.80;;
8044;SDS011;4065;48.754;9.982;2023-04-29T11:38:30;4.47;;;4.07;;
8044;SDS011;4065;48.754;9.982;2023-04-29T11:42:01;4.72;;;4.00;;
8044;SDS011;4065;48.754;9.982;2023-04-29T11:45:24;4.40;;;4.00;;
8044;SDS011;4065;48.754;9.982;2023-04-29T11:48:48;5.03;;;3.95;;
8044;SDS011;4065;48.754;9.982;2023-04-29T11:52:10;3.65;;;3.35;;
8044;SDS011;4065;48.754;9.982;2023-04-29T11:55:33;4.30;;;3.90;;
8044;SDS011;4065;48.754;9.982;2023-04-29T11:58:56;3.45;;;3.13;;
8044;SDS011;4065;48.754;9.982;2023-04-29T12:02:20;5.57;;;4.28;;
8044;SDS011;4065;48.754;9.982;2023-04-29T12:05:45;4.30;;;3.90;;
8044;SDS011;4065;48.754;9.982;2023-04-29T12:09:07;4.25;;;3.90;;
8044;SDS011;4065;48.754;9.982;2023-04-29T12:12:30;5.35;;;3.90;;
8044;SDS011;4065;48.754;9.982;2023-04-29T12:15:56;4.55;;;3.67;;
8044;SDS011;4065;48.754;9.982;2023-04-29T12:19:18;5.75;;;4.03;;
8044;SDS011;4065;48.754;9.982;2023-04-29T12:22:43;4.10;;;3.70;;
8044;SDS011;4065;48.754;9.982;2023-04-29T12:26:05;3.42;;;3.13;;
8044;SDS011;4065;48.754;9.982;2023-04-29T12:29:28;3.55;;;2.72;;
8044;SDS011;4065;48.754;9.982;2023-04-29T12:32:52;3.28;;;2.97;;
8044;SDS011;4065;48.754;9.982;2023-04-29T12:36:17;3.10;;;2.88;;
8044;SDS011;4065;48.754;9.982;2023-04-29T12:39:39;2.88;;;2.67;;
8044;SDS011;4065;48.754;9.982;2023-04-29T12:43:05;3.60;;;3.30;;
8044;SDS011;4065;48.754;9.982;2023-04-29T12:46:29;3.50;;;3.20;;
8044;SDS011;4065;48.754;9.982;2023-04-29T12:49:56;3.95;;;3.65;;
8044;SDS011;4065;48.754;9.982;2023-04-29T12:53:18;4.10;;;3.35;;
8044;SDS011;4065;48.754;9.982;2023-04-29T12:56:40;4.15;;;3.03;;
8044;SDS011;4065;48.754;9.982;2023-04-29T13:00:02;8.52;;;4.35;;
8044;SDS011;4065;48.754;9.982;2023-04-29T13:03:27;3.47;;;2.90;;
8044;SDS011;4065;48.754;9.982;2023-04-29T13:06:49;2.80;;;2.60;;
8044;SDS011;4065;48.754;9.982;2023-04-29T13:10:13;3.75;;;2.92;;
8044;SDS011;4065;48.754;9.982;2023-04-29T13:13:35;5.45;;;3.95;;
8044;SDS011;4065;48.754;9.982;2023-04-29T13:17:01;3.83;;;3.40;;
8044;SDS011;4065;48.754;9.982;2023-04-29T13:20:25;3.72;;;3.40;;
8044;SDS011;4065;48.754;9.982;2023-04-29T13:23:47;4.30;;;3.20;;
8044;SDS011;4065;48.754;9.982;2023-04-29T13:27:09;5.20;;;4.68;;
8044;SDS011;4065;48.754;9.982;2023-04-29T13:30:31;4.30;;;3.90;;
8044;SDS011;4065;48.754;9.982;2023-04-29T13:33:54;5.05;;;4.55;;
8044;SDS011;4065;48.754;9.982;2023-04-29T13:37:17;4.68;;;4.18;;
8044;SDS011;4065;48.754;9.982;2023-04-29T13:40:44;4.95;;;4.00;;
8044;SDS011;4065;48.754;9.982;2023-04-29T13:44:06;3.90;;;3.60;;
8044;SDS011;4065;48.754;9.982;2023-04-29T13:47:28;5.07;;;4.57;;
8044;SDS011;4065;48.754;9.982;2023-04-29T13:50:49;5.13;;;4.72;;
8044;SDS011;4065;48.754;9.982;2023-04-29T13:54:13;4.03;;;3.72;;
8044;SDS011;4065;48.754;9.982;2023-04-29T13:57:35;4.97;;;4.57;;
8044;SDS011;4065;48.754;9.982;2023-04-29T14:00:57;4.65;;;4.25;;
8044;SDS011;4065;48.754;9.982;2023-04-29T14:04:24;9.35;;;5.68;;
8044;SDS011;4065;48.754;9.982;2023-04-29T14:07:49;5.90;;;5.30;;
8044;SDS011;4065;48.754;9.982;2023-04-29T14:11:12;5.93;;;5.43;;
8044;SDS011;4065;48.754;9.982;2023-04-29T14:14:35;5.63;;;5.00;;
8044;SDS011;4065;48.754;9.982;2023-04-29T14:17:57;6.55;;;5.18;;
8044;SDS011;4065;48.754;9.982;2023-04-29T14:21:22;6.47;;;5.88;;
8044;SDS011;4065;48.754;9.982;2023-04-29T14:24:47;7.07;;;6.47;;
8044;SDS011;4065;48.754;9.982;2023-04-29T14:28:10;7.70;;;7.00;;
8044;SDS011;4065;48.754;9.982;2023-04-29T14:31:33;7.72;;;7.03;;
8044;SDS011;4065;48.754;9.982;2023-04-29T14:34:57;8.27;;;7.47;;
8044;SDS011;4065;48.754;9.982;2023-04-29T14:38:19;7.90;;;7.10;;
8044;SDS011;4065;48.754;9.982;2023-04-29T14:41:41;8.98;;;8.07;;
8044;SDS011;4065;48.754;9.982;2023-04-29T14:45:08;8.63;;;7.78;;
8044;SDS011;4065;48.754;9.982;2023-04-29T14:48:31;7.57;;;5.53;;
8044;SDS011;4065;48.754;9.982;2023-04-29T14:51:53;7.72;;;6.93;;
8044;SDS011;4065;48.754;9.982;2023-04-29T14:55:15;11.57;;;7.93;;
8044;SDS011;4065;48.754;9.982;2023-04-29T14:58:40;8.98;;;8.18;;
8044;SDS011;4065;48.754;9.982;2023-04-29T15:02:04;8.88;;;8.05;;
8044;SDS011;4065;48.754;9.982;2023-04-29T15:05:28;9.13;;;8.23;;
8044;SDS011;4065;48.754;9.982;2023-04-29T15:08:50;15.48;;;14.10;;
8044;SDS011;4065;48.754;9.982;2023-04-29T15:12:13;10.98;;;9.98;;
8044;SDS011;4065;48.754;9.982;2023-04-29T15:15:37;9.50;;;8.60;;
8044;SDS011;4065;48.754;9.982;2023-04-29T15:19:00;9.27;;;8.38;;
8044;SDS011;4065;48.754;9.982;2023-04-29T15:22:22;10.82;;;9.13;;
8044;SDS011;4065;48.754;9.982;2023-04-29T15:25:44;10.38;;;9.38;;
8044;SDS011;4065;48.754;9.982;2023-04-29T15:29:05;10.23;;;9.25;;
8044;SDS011;4065;48.754;9.982;2023-04-29T15:32:27;9.70;;;8.70;;
8044;SDS011;4065;48.754;9.982;2023-04-29T15:35:53;9.82;;;8.82;;
8044;SDS011;4065;48.754;9.982;2023-04-29T15:39:16;9.07;;;8.23;;
8044;SDS011;4065;48.754;9.982;2023-04-29T15:42:38;10.13;;;8.85;;
8044;SDS011;4065;48.754;9.982;2023-04-29T15:46:00;12.77;;;9.77;;
8044;SDS011;4065;48.754;9.982;2023-04-29T15:49:22;9.77;;;8.77;;
8044;SDS011;4065;48.754;9.982;2023-04-29T15:52:46;14.68;;;13.38;;
8044;SDS011;4065;48.754;9.982;2023-04-29T15:56:11;10.60;;;9.50;;
8044;SDS011;4065;48.754;9.982;2023-04-29T15:59:37;10.73;;;9.60;;
8044;SDS011;4065;48.754;9.982;2023-04-29T16:02:58;8.85;;;7.97;;
8044;SDS011;4065;48.754;9.982;2023-04-29T16:06:20;8.93;;;8.02;;
8044;SDS011;4065;48.754;9.982;2023-04-29T16:09:44;13.20;;;8.85;;
8044;SDS011;4065;48.754;9.982;2023-04-29T16:14:21;9.98;;;8.98;;
8044;SDS011;4065;48.754;9.982;2023-04-29T16:17:47;9.05;;;8.15;;
8044;SDS011;4065;48.754;9.982;2023-04-29T16:21:09;12.00;;;10.13;;
8044;SDS011;4065;48.754;9.982;2023-04-29T16:24:32;10.57;;;9.38;;
8044;SDS011;4065;48.754;9.982;2023-04-29T16:27:54;11.88;;;10.02;;
8044;SDS011;4065;48.754;9.982;2023-04-29T16:31:21;11.63;;;10.43;;
8044;SDS011;4065;48.754;9.982;2023-04-29T16:34:43;10.82;;;9.43;;
8044;SDS011;4065;48.754;9.982;2023-04-29T16:38:05;13.05;;;10.40;;
8044;SDS011;4065;48.754;9.982;2023-04-29T16:41:27;11.40;;;9.55;;
8044;SDS011;4065;48.754;9.982;2023-04-29T16:44:52;10.82;;;9.48;;
8044;SDS011;4065;48.754;9.982;2023-04-29T16:48:17;12.05;;;10.52;;
8044;SDS011;4065;48.754;9.982;2023-04-29T16:51:39;12.07;;;9.88;;
8044;SDS011;4065;48.754;9.982;2023-04-29T16:55:01;12.68;;;9.70;;
8044;SDS011;4065;48.754;9.982;2023-04-29T16:58:23;13.40;;;10.07;;
8044;SDS011;4065;48.754;9.982;2023-04-29T17:01:45;12.77;;;10.30;;
8044;SDS011;4065;48.754;9.982;2023-04-29T17:05:08;11.18;;;9.10;;
8044;SDS011;4065;48.754;9.982;2023-04-29T17:08:30;12.18;;;9.15;;
8044;SDS011;4065;48.754;9.982;2023-04-29T17:11:52;11.60;;;9.50;;
8044;SDS011;4065;48.754;9.982;2023-04-29T17:15:14;14.27;;;10.60;;
8044;SDS011;4065;48.754;9.982;2023-04-29T17:18:36;14.38;;;10.52;;
8044;SDS011;4065;48.754;9.982;2023-04-29T17:22:00;11.32;;;9.70;;
8044;SDS011;4065;48.754;9.982;2023-04-29T17:25:22;14.70;;;10.10;;
8044;SDS011;4065;48.754;9.982;2023-04-29T17:28:45;12.60;;;10.18;;
8044;SDS011;4065;48.754;9.982;2023-04-29T17:32:07;12.70;;;10.43;;
8044;SDS011;4065;48.754;9.982;2023-04-29T17:35:30;12.57;;;9.75;;
8044;SDS011;4065;48.754;9.982;2023-04-29T17:38:54;11.60;;;9.82;;
8044;SDS011;4065;48.754;9.982;2023-04-29T17:42:16;14.27;;;10.07;;
8044;SDS011;4065;48.754;9.982;2023-04-29T17:45:40;9.07;;;8.10;;
8044;SDS011;4065;48.754;9.982;2023-04-29T17:49:02;15.15;;;10.95;;
8044;SDS011;4065;48.754;9.982;2023-04-29T17:52:24;12.70;;;9.45;;
8044;SDS011;4065;48.754;9.982;2023-04-29T17:55:48;12.48;;;9.70;;
8044;SDS011;4065;48.754;9.982;2023-04-29T17:59:10;12.73;;;10.30;;
8044;SDS011;4065;48.754;9.982;2023-04-29T18:02:34;12.93;;;10.10;;
8044;SDS011;4065;48.754;9.982;2023-04-29T18:05:56;11.73;;;9.15;;
8044;SDS011;4065;48.754;9.982;2023-04-29T18:09:18;14.02;;;10.82;;
8044;SDS011;4065;48.754;9.982;2023-04-29T18:12:41;12.90;;;10.13;;
8044;SDS011;4065;48.754;9.982;2023-04-29T18:16:06;11.95;;;9.43;;
8044;SDS011;4065;48.754;9.982;2023-04-29T18:19:28;12.60;;;10.00;;
8044;SDS011;4065;48.754;9.982;2023-04-29T18:22:50;11.55;;;9.13;;
8044;SDS011;4065;48.754;9.982;2023-04-29T18:26:12;11.30;;;9.10;;
8044;SDS011;4065;48.754;9.982;2023-04-29T18:29:35;11.70;;;8.82;;
8044;SDS011;4065;48.754;9.982;2023-04-29T18:32:57;12.30;;;9.50;;
8044;SDS011;4065;48.754;9.982;2023-04-29T18:36:19;11.93;;;9.15;;
8044;SDS011;4065;48.754;9.982;2023-04-29T18:39:43;11.90;;;9.48;;
8044;SDS011;4065;48.754;9.982;2023-04-29T18:43:05;12.75;;;11.07;;
8044;SDS011;4065;48.754;9.982;2023-04-29T18:46:28;10.40;;;9.30;;
8044;SDS011;4065;48.754;9.982;2023-04-29T18:49:50;13.52;;;10.43;;
8044;SDS011;4065;48.754;9.982;2023-04-29T18:53:12;14.10;;;9.95;;
8044;SDS011;4065;48.754;9.982;2023-04-29T18:56:33;10.52;;;9.30;;
8044;SDS011;4065;48.754;9.982;2023-04-29T18:59:55;10.48;;;8.40;;
8044;SDS011;4065;48.754;9.982;2023-04-29T19:03:19;10.77;;;9.65;;
8044;SDS011;4065;48.754;9.982;2023-04-29T19:06:41;12.02;;;9.27;;
8044;SDS011;4065;48.754;9.982;2023-04-29T19:10:03;12.18;;;9.38;;
8044;SDS011;4065;48.754;9.982;2023-04-29T19:13:25;12.40;;;9.55;;
8044;SDS011;4065;48.754;9.982;2023-04-29T19:16:48;10.85;;;9.32;;
8044;SDS011;4065;48.754;9.982;2023-04-29T19:20:12;9.80;;;8.30;;
8044;SDS011;4065;48.754;9.982;2023-04-29T19:23:34;11.57;;;9.77;;
8044;SDS011;4065;48.754;9.982;2023-04-29T19:26:55;12.52;;;10.73;;
8044;SDS011;4065;48.754;9.982;2023-04-29T19:30:18;12.30;;;10.52;;
8044;SDS011;4065;48.754;9.982;2023-04-29T19:33:40;12.20;;;9.65;;
8044;SDS011;4065;48.754;9.982;2023-04-29T19:37:03;12.10;;;10.07;;
8044;SDS011;4065;48.754;9.982;2023-04-29T19:40:27;11.43;;;8.70;;
8044;SDS011;4065;48.754;9.982;2023-04-29T19:43:49;11.35;;;9.10;;
8044;SDS011;4065;48.754;9.982;2023-04-29T19:47:11;10.68;;;9.57;;
8044;SDS011;4065;48.754;9.982;2023-04-29T19:50:33;14.38;;;12.88;;
8044;SDS011;4065;48.754;9.982;2023-04-29T19:53:56;10.60;;;9.50;;
8044;SDS011;4065;48.754;9.982;2023-04-29T19:57:20;13.95;;;11.30;;
8044;SDS011;4065;48.754;9.982;2023-04-29T20:00:42;13.05;;;10.60;;
8044;SDS011;4065;48.754;9.982;2023-04-29T20:04:04;11.05;;;9.88;;
8044;SDS011;4065;48.754;9.982;2023-04-29T20:07:26;18.23;;;14.98;;
8044;SDS011;4065;48.754;9.982;2023-04-29T20:10:49;20.30;;;15.38;;
8044;SDS011;4065;48.754;9.982;2023-04-29T20:14:12;11.77;;;9.95;;
8044;SDS011;4065;48.754;9.982;2023-04-29T20:17:34;20.95;;;16.15;;
8044;SDS011;4065;48.754;9.982;2023-04-29T20:20:56;18.77;;;12.60;;
8044;SDS011;4065;48.754;9.982;2023-04-29T20:24:18;15.00;;;10.63;;
8044;SDS011;4065;48.754;9.982;2023-04-29T20:27:42;18.38;;;13.75;;
8044;SDS011;4065;48.754;9.982;2023-04-29T20:31:04;20.52;;;15.35;;
8044;SDS011;4065;48.754;9.982;2023-04-29T20:34:27;22.55;;;17.10;;
8044;SDS011;4065;48.754;9.982;2023-04-29T20:37:49;13.70;;;11.23;;
8044;SDS011;4065;48.754;9.982;2023-04-29T20:41:11;15.98;;;11.63;;
8044;SDS011;4065;48.754;9.982;2023-04-29T20:44:34;12.75;;;10.88;;
8044;SDS011;4065;48.754;9.982;2023-04-29T20:47:57;10.88;;;8.63;;
8044;SDS011;4065;48.754;9.982;2023-04-29T20:51:20;13.68;;;10.25;;
8044;SDS011;4065;48.754;9.982;2023-04-29T20:54:42;12.43;;;10.57;;
8044;SDS011;4065;48.754;9.982;2023-04-29T20:58:03;10.70;;;8.60;;